METAR = LIPX 181650Z 12004KT CAVOK 27/15 Q1019

STAZIONE.................. LIPX
ORA METAR................. Fri Sep 18, 18:50 CEST
ORA ATTUALE............... Fri Sep 18, 19:07 CEST
TEMPO TRASCORSO........... 17 minuti fa
VENTO..................... ESE a 5 mph
VISIBILITA'............... maggiore di 10 chilometri
NUVOLE.................... cielo limpido
TEMPERATURA............... 81°F (27°C)
PUNTO RUGIADA............. 59°F (15°C)
UMIDITA'.................. 48%
INDICE DI CALORE.......... 81°F (27°C)
PRESSIONE................. 1019 hPa (30.09 in Hg)


Informazioni per la stazione LIPX